deformed-offering

Nearby METAR Reports

 

KNUQ - Moffett Nas/Mtn, California, USA
Distance from station: N 9mi, 14km
Updated: Tue, 14-Aug-2018 12:17pm PDT
Partly Cloudy
Partly Cloudy
 Wind from N
Wind: N 13 mph , 20 km/h
Temperature: 66°F , 19°C
Dew Point: 57°F , 14°C
Humidity: 73%
Barometer: 29.97 inHg , 1014.9 hPa
Clouds: Partly Cloudy
Visibility: 10 miles , 16 km
Cloud details: Partly Cloudy 1800 ft
2018/08/14 19:17 KNUQ 141917Z 36011KT 10SM SCT018 19/14 A2997 RMK AO2 T01940139
KSJC - San Jose, California, USA
Distance from station: NE 9mi, 14km
Updated: Tue, 14-Aug-2018 11:53am PDT
Partly Cloudy
Partly Cloudy
 Wind from NNW
Wind: NNW 12 mph , 19 km/h
Temperature: 68°F , 20°C
Dew Point: 55°F , 13°C
Humidity: 64%
Barometer: 29.96 inHg , 1014.6 hPa
Clouds: Partly Cloudy
Visibility: 10 miles , 16 km
Cloud details: Partly Cloudy 1500 ft
Partly Cloudy 3200 ft
Partly Cloudy 6000 ft
2018/08/14 18:53 KSJC 141853Z 33010KT 10SM SCT015 SCT032 SCT060 20/13 A2996 RMK AO2 SLP144 FU SCT032 T02000133
 
KRHV - San Jose/Reid, California, USA
Distance from station: ENE 12mi, 19km
Updated: Tue, 14-Aug-2018 11:47am PDT
Partly Cloudy
Partly Cloudy
 Wind from NNW
Wind: NNW 10 mph , 17 km/h
Temperature: 68°F , 20°C
Dew Point: 55°F , 13°C
Humidity: 64%
Barometer: 29.94 inHg , 1013.9 hPa
Clouds: Partly Cloudy
Visibility: 10 miles , 16 km
Cloud details: Partly Cloudy 6000 ft
2018/08/14 18:47 KRHV 141847Z 34009KT 10SM SCT060 20/13 A2994
KPAO - Palo Alto, California, USA
Distance from station: NNW 14mi, 23km
Updated: Tue, 14-Aug-2018 12:47pm PDT
Partly Cloudy
Partly Cloudy
 Wind from NW
Wind: NW 14 mph , 22 km/h
Temperature: 68°F , 20°C
Dew Point: 59°F , 15°C
Humidity: 73%
Barometer: 29.96 inHg , 1014.6 hPa
Clouds: Partly Cloudy
Visibility: 10 miles , 16 km
Cloud details: Partly Cloudy 1800 ft
2018/08/14 19:47 KPAO 141947Z 31012KT 10SM SCT018 20/15 A2996
 
KSQL - San Carlos Airpo, California, USA
Distance from station: NW 21mi, 34km
Updated: Tue, 14-Aug-2018 12:47pm PDT
Mostly Cloudy
Mostly Cloudy
 Wind from WSW
Wind: WSW 13 mph , 20 km/h
Temperature: 66°F , 19°C
Dew Point: 57°F , 14°C
Humidity: 73%
Barometer: 29.96 inHg , 1014.6 hPa
Clouds: Mostly Cloudy
Visibility: 10 miles , 16 km
Cloud details: Mostly Cloudy 1700 ft
2018/08/14 19:47 KSQL 141947Z 25011KT 10SM BKN017 19/14 A2996
KE16 - San Martin, California, USA
Distance from station: ESE 27mi, 43km
Updated: Sun, 05-Aug-2018 3:05am PDT
NOT Current
Clear
Clear
 Wind from calm
Wind: Calm
Temperature: 61°F , 16°C
Dew Point: 48°F , 9°C
Humidity: 63%
Barometer: 29.93 inHg , 1013.5 hPa
Clouds: Clear
Visibility: 10 miles , 16 km
2018/08/05 10:05 KE16 051005Z AUTO 00000KT 10SM CLR 16/09 A2993 RMK AO2
 
KWVI - Watsonville, California, USA
Distance from station: SSE 27mi, 44km
Updated: Tue, 14-Aug-2018 12:36pm PDT
Partly Cloudy
Partly Cloudy
 Wind from SW
Wind: SW 8 mph , 13 km/h
Temperature: 66°F , 19°C
Dew Point: 55°F , 13°C
Humidity: 68%
Barometer: 29.96 inHg , 1014.6 hPa
Clouds: Partly Cloudy
Visibility: 10 miles , 16 km
Cloud details: Partly Cloudy 1200 ft
2018/08/14 19:36 KWVI 141936Z AUTO 22007KT 10SM SCT012 19/13 A2996 RMK AO2 T01940133
KHWD - Hayward, California, USA
Distance from station: N 28mi, 44km
Updated: Tue, 14-Aug-2018 11:54am PDT
Overcast
Overcast
 Wind from W
Wind: W 8 mph , 13 km/h
Temperature: 63°F , 17°C
Dew Point: 55°F , 13°C
Humidity: 77%
Barometer: 29.97 inHg , 1014.9 hPa
Clouds: Overcast
Visibility: 10 miles , 16 km
Cloud details: Overcast 1200 ft
2018/08/14 18:54 KHWD 141854Z 26007KT 10SM OVC012 17/13 A2997 RMK AO2 SLP157 T01720128
 
KSFO - San Francisco, California, USA
Distance from station: NW 30mi, 49km
Updated: Tue, 14-Aug-2018 12:03pm PDT
Overcast
Overcast
 Wind from W
Wind: W 12 mph , 19 km/h
Temperature: 61°F , 16°C
Dew Point: 54°F , 12°C
Humidity: 77%
Barometer: 29.97 inHg , 1014.9 hPa
Clouds: Overcast
Visibility: 10 miles , 16 km
Cloud details: Few Clouds 600 ft
Overcast 1100 ft
2018/08/14 19:03 KSFO 141903Z 27010KT 10SM FEW006 OVC011 16/12 A2997 RMK AO2 T01610122
KHAF - Half Moon Bay, California, USA
Distance from station: WNW 31mi, 50km
Updated: Tue, 14-Aug-2018 12:40pm PDT
Mist, Mostly cloudy
Mist, Mostly cloudy
 Wind from NW
Wind: NW 7 mph , 11 km/h
Temperature: 59°F , 15°C
Dew Point: 57°F , 14°C
Humidity: 94%
Barometer: 29.99 inHg , 1015.6 hPa
Summary: Mist
Clouds: Mostly Cloudy
Visibility: 4 miles , 6 km
Cloud details: Mostly Cloudy 800 ft
2018/08/14 19:40 KHAF 141940Z AUTO 31006KT 4SM BR BKN008 15/14 A2999 RMK AO2
 
KOAK - Oakland, California, USA
Distance from station: NNW 31mi, 50km
Updated: Tue, 14-Aug-2018 11:53am PDT
Overcast
Overcast
 Wind from WSW
Wind: WSW 9 mph , 15 km/h
Temperature: 63°F , 17°C
Dew Point: 55°F , 13°C
Humidity: 77%
Barometer: 29.97 inHg , 1014.9 hPa
Clouds: Overcast
Visibility: 10 miles , 16 km
Cloud details: Overcast 1100 ft
2018/08/14 18:53 KOAK 141853Z 25008KT 10SM OVC011 17/13 A2997 RMK AO2 SLP148 T01670133
KLVK - Livermore, California, USA
Distance from station: NNE 31mi, 51km
Updated: Tue, 14-Aug-2018 11:53am PDT
Partly Cloudy
Partly Cloudy
 Wind from NW
Wind: NW 8 mph , 13 km/h
Temperature: 66°F , 19°C
Dew Point: 55°F , 13°C
Humidity: 68%
Barometer: 29.94 inHg , 1013.9 hPa
Clouds: Partly Cloudy
Visibility: 10 miles , 16 km
Cloud details: Partly Cloudy 1700 ft
2018/08/14 18:53 KLVK 141853Z 31007KT 10SM SCT017 19/13 A2994 RMK AO2 SLP136 T01940128
 
KCVH - Hollister Muni, California, USA
Distance from station: SE 42mi, 68km
Updated: Tue, 14-Aug-2018 12:35pm PDT
Clear
Clear
 Wind from varies
Wind: varies 5 mph , 7 km/h
Temperature: 73°F , 23°C
Dew Point: 57°F , 14°C
Humidity: 57%
Barometer: 29.93 inHg , 1013.5 hPa
Clouds: Clear
Visibility: 10 miles , 16 km
2018/08/14 19:35 KCVH 141935Z AUTO VRB04KT 10SM CLR 23/14 A2993 RMK A01
KSNS - Salinas, California, USA
Distance from station: SSE 48mi, 77km
Updated: Tue, 14-Aug-2018 11:53am PDT
Few Clouds
Few Clouds
 Wind from NW
Wind: NW 13 mph , 20 km/h
Temperature: 64°F , 18°C
Dew Point: 55°F , 13°C
Humidity: 73%
Barometer: 29.95 inHg , 1014.2 hPa
Clouds: Few Clouds
Visibility: 10 miles , 16 km
Cloud details: Few Clouds 1400 ft
2018/08/14 18:53 KSNS 141853Z 31011KT 10SM FEW014 18/13 A2995 RMK AO2 SLP152 T01780128
 
KMRY - Monterey, California, USA
Distance from station: SSE 49mi, 78km
Updated: Tue, 14-Aug-2018 12:06pm PDT
Mostly Cloudy
Mostly Cloudy
 Wind from WNW
Wind: WNW 7 mph , 11 km/h
Temperature: 64°F , 18°C
Dew Point: 55°F , 13°C
Humidity: 73%
Barometer: 29.98 inHg , 1015.2 hPa
Clouds: Mostly Cloudy
Visibility: 10 miles , 16 km
Cloud details: Mostly Cloudy 1800 ft
2018/08/14 19:06 KMRY 141906Z 29006KT 10SM BKN018 18/13 A2998 RMK AO2 T01780128
KCCR - Concord, California, USA
Distance from station: N 50mi, 81km
Updated: Tue, 14-Aug-2018 11:53am PDT
Clear
Clear
 Wind from S
Wind: S 17 mph , 28 km/h
Temperature: 70°F , 21°C
Dew Point: 54°F , 12°C
Humidity: 57%
Barometer: 29.93 inHg , 1013.5 hPa
Clouds: Clear
Visibility: 10 miles , 16 km
2018/08/14 18:53 KCCR 141853Z 19015KT 10SM CLR 21/12 A2993 RMK AO2 SLP121 T02110122
deformed-offering